• Join FlightAware (Why Join?)
  • Login
  • US Flag 
02:37PM EDT


 

Airport Tracker/Info


-or-


 

Live Flight TrackerFlight Track Log ✈ UAL4434 ✈ 30-Apr-2013 ✈ KEWR - KMHT

Flight Track Log - Related Links

Times and Time Zones

All times are in EDT time to prevent confusion due to time zone crossing. See the UAL4434 flight status page for this flight to view local times or setup timezone preferences in your user account.

Time Position Orientation Groundspeed Altitude Reporting Facility
EDT Latitude Longitude Course Direction KTS MPH feet Rate Location/Type
03:36PM 40.6333 -74.2167 27° Northeast 211 243 2,500  Level New York TRACON
03:37PM 40.6833 -74.2333 346° North 264 304 4,200 2,100 Climbing New York TRACON
03:38PM 40.9413 -73.8754 37° Northeast  Level FlightAware Approximate
03:38PM 40.7167 -74.1667 57° Northeast 248 285 6,800  Level New York TRACON
03:39PM 41.0114 -73.8039 40° Northeast  Level FlightAware Approximate
03:39PM 40.7500 -74.0667 66° East 263 303 8,900  Level New York TRACON
03:40PM 41.0789 -73.7280 40° Northeast  Level FlightAware Approximate
03:40PM 40.7833 -73.9667 66° East 280 322 10,100  Level New York TRACON
03:41PM 41.1455 -73.6586 27° Northeast  Level FlightAware Approximate
03:41PM 40.8333 -73.8667 57° Northeast 326 375 10,100  Level New York TRACON
03:42PM 40.9000 -73.8167 30° Northeast 346 398 11,300 1,200 Climbing New York TRACON
03:43PM 40.9833 -73.7500 31° Northeast 346 398 12,400 1,200 Climbing New York TRACON
03:45PM 41.1481 -73.6117 32° Northeast 374 430 14,800 1,260 Climbing Boston Center
03:46PM 41.2258 -73.5386 35° Northeast 379 436 16,100 1,200 Climbing Boston Center
03:47PM 41.3183 -73.4572 33° Northeast 374 430 17,500 1,260 Climbing Boston Center
03:48PM 41.4233 -73.3647 33° Northeast 374 430 18,900 1,260 Climbing Boston Center
03:49PM 41.4989 -73.2911 36° Northeast 374 430 20,100 1,260 Climbing Boston Center
03:50PM 41.5706 -73.1947 45° Northeast 368 423 21,500 1,380 Climbing Boston Center
03:51PM 41.6544 -73.1208 33° Northeast 361 415 22,900 1,380 Climbing Boston Center
03:52PM 41.7564 -73.1303 356° North 336 387 24,300 1,020 Climbing Boston Center
03:53PM 41.8564 -73.1481 352° North 346 398 25,000 300 Climbing Boston Center
03:54PM 41.9667 -73.1661 353° North 370 426 25,000  Level Boston Center
03:55PM 42.0811 -73.1842 353° North 400 460 25,000  Level Boston Center
03:56PM 42.1978 -73.2053 352° North 413 475 25,000  Level Boston Center
03:57PM 42.2936 -73.2231 352° North 425 489 25,000  Level Boston Center
03:58PM 42.4392 -73.2361 356° North 431 496 25,000 -300 Level Boston Center
03:59PM 42.5519 -73.2011 13° North 425 489 24,500 -1,200 Descending Boston Center
04:00PM 42.6278 -73.0806 49° Northeast 361 415 22,700 -1,860 Descending Boston Center
04:01PM 42.6558 -72.9286 76° East 396 456 20,800 -2,220 Descending Boston Center
04:02PM 42.6856 -72.7761 75° East 390 449 18,300 -2,400 Descending Boston Center
04:03PM 42.7044 -72.6378 79° East 380 437 16,100 -2,400 Descending Boston Center
04:04PM 42.7233 -72.4967 80° East 374 430 13,600 -2,220 Descending Boston Center
04:05PM 42.7422 -72.3639 79° East 369 425 11,700 -1,500 Descending Boston Center
04:06PM 42.7567 -72.2478 80° East 355 409 10,600 -1,080 Descending Boston Center
04:07PM 42.7750 -72.1233 79° East 327 376 9,600 -840 Descending Boston Center
04:08PM 42.7872 -72.0300 80° East 282 325 9,000 -300 Descending Boston Center
04:09PM 42.8014 -71.9139 81° East 274 315 9,000  Level Boston Center
04:10PM 42.8133 -71.8203 80° East 279 321 9,000 -900 Level Boston Center
04:11PM 42.8714 -71.7489 42° Northeast 253 291 7,200 -1,800 Descending Boston Center
04:12PM 42.9272 -71.7000 33° Northeast 253 291 5,500 -1,800 Descending Boston Center
04:13PM 42.9872 -71.6311 40° Northeast 258 297 3,600 -1,920 Descending Boston Center